createdAt,value
2023-05-19T00:02:04.099Z,97.24
2023-05-19T00:07:04.101Z,97.23
2023-05-19T00:12:04.092Z,97.23
2023-05-19T00:17:04.104Z,97.22
2023-05-19T00:22:04.095Z,97.22
2023-05-19T00:27:04.107Z,97.21
2023-05-19T00:32:04.109Z,97.22
2023-05-19T00:37:04.110Z,97.22
2023-05-19T00:42:04.112Z,97.22
2023-05-19T00:47:04.104Z,97.21
2023-05-19T00:52:04.115Z,97.21
2023-05-19T00:57:04.107Z,97.21
2023-05-19T01:02:04.118Z,97.2
2023-05-19T01:07:04.120Z,97.2
2023-05-19T01:12:04.111Z,97.2
2023-05-19T01:17:04.123Z,97.19
2023-05-19T01:22:04.114Z,97.2
2023-05-19T01:27:04.126Z,97.2
2023-05-19T01:32:04.127Z,97.2
2023-05-19T01:37:04.129Z,97.2
2023-05-19T01:42:04.130Z,97.2
2023-05-19T01:47:04.122Z,97.21
2023-05-19T01:52:04.133Z,97.21
2023-05-19T01:57:04.125Z,97.21
2023-05-19T02:02:04.136Z,97.22
2023-05-19T02:07:04.139Z,97.21
2023-05-19T02:12:04.181Z,97.21
2023-05-19T02:17:04.143Z,97.2
2023-05-19T02:22:04.132Z,97.2
2023-05-19T02:27:04.144Z,97.2
2023-05-19T02:32:04.135Z,97.19
2023-05-19T02:37:04.147Z,97.19
2023-05-19T02:42:04.148Z,97.18
2023-05-19T02:47:04.140Z,97.16
2023-05-19T02:52:04.151Z,97.17
2023-05-19T02:57:04.143Z,97.17
2023-05-19T03:02:04.154Z,97.17
2023-05-19T03:07:04.156Z,97.16
2023-05-19T03:12:04.157Z,97.17
2023-05-19T03:17:04.159Z,97.17
2023-05-19T03:22:04.150Z,97.17
2023-05-19T03:27:04.162Z,97.17
2023-05-19T03:32:04.153Z,97.18
2023-05-19T03:37:04.164Z,97.18
2023-05-19T03:42:04.166Z,97.19
2023-05-19T03:47:04.157Z,97.2
2023-05-19T03:52:04.168Z,97.2
2023-05-19T03:57:04.160Z,97.2
2023-05-19T04:02:04.171Z,97.2
2023-05-19T04:07:04.173Z,97.2
2023-05-19T04:12:04.174Z,97.2
2023-05-19T04:17:04.175Z,97.2
2023-05-19T04:22:04.167Z,97.2
2023-05-19T04:27:04.178Z,97.19
2023-05-19T04:32:04.169Z,97.19
2023-05-19T04:37:04.181Z,97.19
2023-05-19T04:42:04.182Z,97.19
2023-05-19T04:47:04.207Z,97.2
2023-05-19T04:52:04.185Z,97.19
2023-05-19T04:57:04.176Z,97.2
2023-05-19T05:02:04.188Z,97.19
2023-05-19T05:07:04.203Z,97.19
2023-05-19T05:12:04.190Z,97.19
2023-05-19T05:17:04.232Z,97.19
2023-05-19T05:22:04.183Z,97.19
2023-05-19T05:27:04.195Z,97.18
2023-05-19T05:32:04.186Z,97.18
2023-05-19T05:37:04.198Z,97.17
2023-05-19T05:42:04.199Z,97.17
2023-05-19T05:47:04.201Z,97.17
2023-05-19T05:52:04.204Z,97.17
2023-05-19T05:57:04.194Z,97.17
2023-05-19T06:02:04.205Z,97.16
2023-05-19T06:07:04.197Z,97.17
2023-05-19T06:12:04.208Z,97.17
2023-05-19T06:17:04.210Z,97.17
2023-05-19T06:22:04.201Z,97.17
2023-05-19T06:27:04.215Z,97.17
2023-05-19T06:32:04.204Z,97.17
2023-05-19T06:37:04.216Z,97.17
2023-05-19T06:42:04.218Z,97.17
2023-05-19T06:47:04.219Z,97.18
2023-05-19T06:52:04.223Z,97.17
2023-05-19T06:57:04.213Z,97.17
2023-05-19T07:07:04.216Z,97.17
2023-05-19T07:12:04.228Z,97.16
2023-05-19T07:17:04.229Z,97.16
2023-05-19T07:22:04.221Z,97.16
2023-05-19T07:27:04.235Z,97.16
2023-05-19T07:32:04.225Z,97.16
2023-05-19T07:37:04.236Z,97.16
2023-05-19T07:42:04.228Z,97.15
2023-05-19T07:47:04.240Z,97.15
2023-05-19T07:52:04.244Z,97.15
2023-05-19T07:57:04.233Z,97.15
2023-05-19T08:02:04.271Z,97.15
2023-05-19T08:07:04.237Z,97.15
2023-05-19T08:12:04.251Z,97.15
2023-05-19T08:17:04.250Z,97.15
2023-05-19T08:22:04.252Z,97.15
2023-05-19T08:27:04.256Z,97.15
2023-05-19T08:32:04.246Z,97.15
2023-05-19T08:37:04.257Z,97.14
2023-05-19T08:42:04.249Z,97.13
2023-05-19T08:47:04.261Z,97.13
2023-05-19T08:52:04.264Z,97.11
2023-05-19T08:57:04.255Z,97.12
2023-05-19T09:02:04.269Z,97.11
2023-05-19T09:07:04.258Z,97.1
2023-05-19T09:12:04.270Z,97.1
2023-05-19T09:17:04.272Z,97.1
2023-05-19T09:22:04.274Z,97.09
2023-05-19T09:27:04.277Z,97.09
2023-05-19T09:32:04.268Z,97.1
2023-05-19T09:37:04.280Z,97.1
2023-05-19T09:42:04.272Z,97.1
2023-05-19T09:47:04.284Z,97.1
2023-05-19T09:52:04.286Z,97.1
2023-05-19T09:57:04.278Z,97.09
2023-05-19T10:02:04.292Z,97.08
2023-05-19T10:07:04.282Z,97.09
2023-05-19T10:12:04.295Z,97.09
2023-05-19T10:17:04.296Z,97.08
2023-05-19T10:22:04.299Z,97.07
2023-05-19T10:27:04.351Z,97.07
2023-05-19T10:32:04.291Z,97.07
2023-05-19T10:37:04.349Z,97.08
2023-05-19T10:42:04.296Z,97.07
2023-05-19T10:47:04.309Z,97.07
2023-05-19T10:52:04.311Z,97.07
2023-05-19T10:57:04.353Z,97.08
2023-05-19T11:02:04.314Z,97.07
2023-05-19T11:07:04.304Z,97.08
2023-05-19T11:12:04.318Z,97.08
2023-05-19T11:17:04.308Z,97.07
2023-05-19T11:22:04.322Z,97.07
2023-05-19T11:27:04.324Z,97.06
2023-05-19T11:32:04.314Z,97.05
2023-05-19T11:37:04.328Z,97.06
2023-05-19T11:42:04.318Z,97.06
2023-05-19T11:47:04.332Z,97.07
2023-05-19T11:52:04.334Z,97.06
2023-05-19T11:57:04.336Z,97.07
2023-05-19T12:02:04.338Z,97.07
2023-05-19T12:07:04.328Z,97.06
2023-05-19T12:17:04.332Z,97.05
2023-05-19T12:22:04.346Z,97.05
2023-05-19T12:27:04.348Z,97.04
2023-05-19T12:32:04.338Z,97.05
2023-05-19T12:37:04.352Z,97.04
2023-05-19T12:42:04.342Z,97.03
2023-05-19T12:47:04.356Z,97.03
2023-05-19T12:52:04.358Z,97.03
2023-05-19T12:57:04.360Z,97.03
2023-05-19T13:02:04.362Z,97.03
2023-05-19T13:07:04.352Z,97.02
2023-05-19T13:12:04.366Z,97.02
2023-05-19T13:17:04.356Z,97.03
2023-05-19T13:22:04.420Z,97.03
2023-05-19T13:27:04.372Z,97.03
2023-05-19T13:32:04.416Z,97.03
2023-05-19T13:37:04.376Z,97.01
2023-05-19T13:42:04.366Z,97.01
2023-05-19T13:47:04.380Z,97.01
2023-05-19T13:52:04.370Z,97.01
2023-05-19T13:57:04.384Z,97
2023-05-19T14:02:04.386Z,97
2023-05-19T14:07:04.377Z,97
2023-05-19T14:12:04.391Z,96.98
2023-05-19T14:17:04.381Z,96.98
2023-05-19T14:22:04.395Z,96.97
2023-05-19T14:27:04.397Z,96.96
2023-05-19T14:32:04.399Z,96.95
2023-05-19T14:37:04.401Z,96.95
2023-05-19T14:42:04.392Z,96.95
2023-05-19T14:47:04.405Z,96.95
2023-05-19T14:52:04.396Z,96.95
2023-05-19T14:57:04.410Z,96.95
2023-05-19T15:02:04.412Z,96.95
2023-05-19T15:07:04.402Z,96.95
2023-05-19T15:12:04.417Z,96.95
2023-05-19T15:17:04.407Z,96.95
2023-05-19T15:22:04.421Z,96.94
2023-05-19T15:27:04.423Z,96.94
2023-05-19T15:32:04.425Z,96.94
2023-05-19T15:37:04.428Z,96.93
2023-05-19T15:42:04.418Z,96.93
2023-05-19T15:47:04.484Z,96.92
2023-05-19T15:52:04.422Z,96.9
2023-05-19T15:57:04.437Z,96.9
2023-05-19T16:02:04.439Z,96.9
2023-05-19T16:07:04.505Z,96.9
2023-05-19T16:12:04.443Z,96.89
2023-05-19T16:17:04.434Z,96.88
2023-05-19T16:22:04.448Z,96.88
2023-05-19T16:27:04.438Z,96.88
2023-05-19T16:32:04.452Z,96.88
2023-05-19T16:42:04.445Z,96.89
2023-05-19T16:47:04.459Z,96.88
2023-05-19T16:52:04.449Z,96.87
2023-05-19T16:57:04.463Z,96.87
2023-05-19T17:02:04.466Z,96.87
2023-05-19T17:07:04.468Z,96.86
2023-05-19T17:12:04.470Z,96.86
2023-05-19T17:17:04.460Z,96.87
2023-05-19T17:22:04.475Z,96.87
2023-05-19T17:27:04.465Z,96.86
2023-05-19T17:32:04.479Z,96.86
2023-05-19T17:37:04.481Z,96.86
2023-05-19T17:42:04.471Z,96.86
2023-05-19T17:47:04.486Z,96.86
2023-05-19T17:52:04.476Z,96.86
2023-05-19T17:57:04.490Z,96.86
2023-05-19T18:02:04.492Z,96.86
2023-05-19T18:07:04.494Z,96.86
2023-05-19T18:12:04.496Z,96.87
2023-05-19T18:17:04.487Z,96.87
2023-05-19T18:22:04.501Z,96.88
2023-05-19T18:27:04.491Z,96.87
2023-05-19T18:32:04.529Z,96.87
2023-05-19T18:37:04.507Z,96.87
2023-05-19T18:42:04.509Z,96.87
2023-05-19T18:47:04.511Z,96.87
2023-05-19T18:52:04.501Z,96.88
2023-05-19T18:57:04.515Z,96.88
2023-05-19T19:02:04.506Z,96.88
2023-05-19T19:07:04.519Z,96.89
2023-05-19T19:12:04.521Z,96.89
2023-05-19T19:17:04.511Z,96.89
2023-05-19T19:22:04.524Z,96.89
2023-05-19T19:27:04.514Z,96.9
2023-05-19T19:32:04.528Z,96.91
2023-05-19T19:37:04.530Z,96.9
2023-05-19T19:42:04.532Z,96.91
2023-05-19T19:47:04.534Z,96.9
2023-05-19T19:57:21.015Z,96.9
2023-05-19T20:02:32.850Z,96.9
2023-05-19T20:07:21.020Z,96.9
2023-05-19T20:12:21.021Z,96.9
2023-05-19T20:17:04.545Z,96.91
2023-05-19T20:22:04.547Z,96.9
2023-05-19T20:27:04.537Z,96.9
2023-05-19T20:32:04.551Z,96.9
2023-05-19T20:37:04.553Z,96.9
2023-05-19T20:42:04.543Z,96.91
2023-05-19T20:47:04.557Z,96.91
2023-05-19T20:52:04.547Z,96.9
2023-05-19T20:57:04.561Z,96.9
2023-05-19T21:02:05.672Z,96.9
2023-05-19T21:07:04.564Z,96.89
2023-05-19T21:12:04.566Z,96.9
2023-05-19T21:17:04.557Z,96.9
2023-05-19T21:22:04.570Z,96.9
2023-05-19T21:27:04.560Z,96.9
2023-05-19T21:32:04.574Z,96.9
2023-05-19T21:37:04.575Z,96.9
2023-05-19T21:42:04.565Z,96.89
2023-05-19T21:47:04.579Z,96.9
2023-05-19T21:52:04.569Z,96.89
2023-05-19T21:57:04.583Z,96.89
2023-05-19T22:02:11.696Z,96.89
2023-05-19T22:07:04.586Z,96.88
2023-05-19T22:12:04.588Z,96.88
2023-05-19T22:17:04.578Z,96.88
2023-05-19T22:22:04.591Z,96.88
2023-05-19T22:27:04.581Z,96.88
2023-05-19T22:32:04.595Z,96.88
2023-05-19T22:37:04.597Z,96.88
2023-05-19T22:42:04.622Z,96.88
2023-05-19T22:47:04.599Z,96.87
2023-05-19T22:52:04.590Z,96.87
2023-05-19T22:57:04.603Z,96.87
2023-05-19T23:02:17.676Z,96.86
2023-05-19T23:07:04.607Z,96.86
2023-05-19T23:12:04.658Z,96.86
2023-05-19T23:17:04.600Z,96.85
2023-05-19T23:22:04.613Z,96.85
2023-05-19T23:27:04.602Z,96.85
2023-05-19T23:32:04.615Z,96.85
2023-05-19T23:37:04.616Z,96.85
2023-05-19T23:42:04.618Z,96.85
2023-05-19T23:47:04.620Z,96.85
2023-05-19T23:52:04.612Z,96.85
2023-05-19T23:57:04.623Z,96.84
